sensor_id;sensor_type;location;lat;lon;timestamp;P1;P2;P0
68841;PMS5003;55849;48.482;2.332;2023-04-03T00:02:58;16.50;12.25;7.50
68841;PMS5003;55849;48.482;2.332;2023-04-03T00:06:02;16.00;12.50;9.50
68841;PMS5003;55849;48.482;2.332;2023-04-03T00:09:05;12.00;6.00;3.00
68841;PMS5003;55849;48.482;2.332;2023-04-03T00:12:07;15.00;10.00;8.00
68841;PMS5003;55849;48.482;2.332;2023-04-03T04:49:59;17.75;13.75;7.00
68841;PMS5003;55849;48.482;2.332;2023-04-03T04:53:00;11.00;10.25;6.75
68841;PMS5003;55849;48.482;2.332;2023-04-03T04:56:02;11.25;8.50;5.50
68841;PMS5003;55849;48.482;2.332;2023-04-03T04:59:04;13.75;10.00;5.25
68841;PMS5003;55849;48.482;2.332;2023-04-03T05:02:06;8.25;8.25;6.00
68841;PMS5003;55849;48.482;2.332;2023-04-03T05:05:09;13.00;12.25;6.75
68841;PMS5003;55849;48.482;2.332;2023-04-03T05:08:11;14.25;11.50;8.50
68841;PMS5003;55849;48.482;2.332;2023-04-03T05:11:12;15.00;10.00;7.00
68841;PMS5003;55849;48.482;2.332;2023-04-03T05:14:14;17.75;13.25;9.00
68841;PMS5003;55849;48.482;2.332;2023-04-03T05:17:15;8.00;7.50;5.50
68841;PMS5003;55849;48.482;2.332;2023-04-03T05:20:18;9.25;9.25;6.00
68841;PMS5003;55849;48.482;2.332;2023-04-03T05:23:20;13.50;11.75;6.75
68841;PMS5003;55849;48.482;2.332;2023-04-03T05:26:22;9.50;7.50;4.50
68841;PMS5003;55849;48.482;2.332;2023-04-03T05:29:23;13.00;10.50;6.75
68841;PMS5003;55849;48.482;2.332;2023-04-03T05:32:25;12.50;9.50;6.00
68841;PMS5003;55849;48.482;2.332;2023-04-03T05:35:28;14.75;10.00;6.25
68841;PMS5003;55849;48.482;2.332;2023-04-03T05:38:30;7.75;6.25;3.00
68841;PMS5003;55849;48.482;2.332;2023-04-03T05:41:32;11.50;8.50;7.00
68841;PMS5003;55849;48.482;2.332;2023-04-03T05:44:33;9.00;7.25;5.00
68841;PMS5003;55849;48.482;2.332;2023-04-03T05:47:35;9.50;9.25;6.00
68841;PMS5003;55849;48.482;2.332;2023-04-03T05:50:38;12.00;9.75;7.00
68841;PMS5003;55849;48.482;2.332;2023-04-03T05:53:42;9.25;9.00;6.25
68841;PMS5003;55849;48.482;2.332;2023-04-03T05:56:45;10.00;9.50;6.00
68841;PMS5003;55849;48.482;2.332;2023-04-03T05:59:47;10.50;9.75;6.25
68841;PMS5003;55849;48.482;2.332;2023-04-03T06:02:49;9.00;7.50;6.50
68841;PMS5003;55849;48.482;2.332;2023-04-03T06:05:52;10.00;9.25;6.25
68841;PMS5003;55849;48.482;2.332;2023-04-03T06:08:54;6.75;6.75;6.50
68841;PMS5003;55849;48.482;2.332;2023-04-03T06:11:55;11.25;9.00;6.75
68841;PMS5003;55849;48.482;2.332;2023-04-03T06:14:58;12.75;6.25;4.50
68841;PMS5003;55849;48.482;2.332;2023-04-03T06:18:01;9.25;8.50;5.00
68841;PMS5003;55849;48.482;2.332;2023-04-03T06:21:04;7.50;6.75;4.00
68841;PMS5003;55849;48.482;2.332;2023-04-03T06:24:11;11.00;8.50;6.00
68841;PMS5003;55849;48.482;2.332;2023-04-03T06:27:15;4.00;4.00;3.25
68841;PMS5003;55849;48.482;2.332;2023-04-03T06:30:17;12.75;9.75;7.00
68841;PMS5003;55849;48.482;2.332;2023-04-03T06:33:19;10.75;8.00;6.25
68841;PMS5003;55849;48.482;2.332;2023-04-03T06:36:22;17.25;13.50;7.00
68841;PMS5003;55849;48.482;2.332;2023-04-03T06:39:24;13.50;9.25;6.25
68841;PMS5003;55849;48.482;2.332;2023-04-03T06:42:25;12.00;9.50;7.00
68841;PMS5003;55849;48.482;2.332;2023-04-03T06:45:27;15.00;9.75;5.00
68841;PMS5003;55849;48.482;2.332;2023-04-03T06:48:29;9.50;8.75;4.50
68841;PMS5003;55849;48.482;2.332;2023-04-03T06:51:32;8.75;6.50;4.75
68841;PMS5003;55849;48.482;2.332;2023-04-03T06:54:35;11.00;9.25;6.00
68841;PMS5003;55849;48.482;2.332;2023-04-03T06:57:37;8.00;6.25;3.75
68841;PMS5003;55849;48.482;2.332;2023-04-03T07:00:39;17.50;9.25;7.00
68841;PMS5003;55849;48.482;2.332;2023-04-03T07:03:40;10.25;7.00;6.00
68841;PMS5003;55849;48.482;2.332;2023-04-03T07:06:43;10.00;7.00;4.00
68841;PMS5003;55849;48.482;2.332;2023-04-03T07:09:45;13.25;9.25;5.50
68841;PMS5003;55849;48.482;2.332;2023-04-03T07:12:48;9.25;6.50;4.50
68841;PMS5003;55849;48.482;2.332;2023-04-03T07:15:49;7.00;6.75;4.00
68841;PMS5003;55849;48.482;2.332;2023-04-03T07:18:51;10.00;9.50;7.00
68841;PMS5003;55849;48.482;2.332;2023-04-03T07:21:54;11.50;6.75;3.50
68841;PMS5003;55849;48.482;2.332;2023-04-03T07:24:56;10.50;10.50;6.25
68841;PMS5003;55849;48.482;2.332;2023-04-03T07:27:58;12.75;10.00;6.00
68841;PMS5003;55849;48.482;2.332;2023-04-03T07:31:01;12.00;8.00;6.00
68841;PMS5003;55849;48.482;2.332;2023-04-03T07:34:05;10.00;7.75;5.50
68841;PMS5003;55849;48.482;2.332;2023-04-03T07:37:09;8.25;7.00;4.50
68841;PMS5003;55849;48.482;2.332;2023-04-03T07:40:11;10.50;8.00;6.00
68841;PMS5003;55849;48.482;2.332;2023-04-03T07:43:12;13.25;8.75;5.50
68841;PMS5003;55849;48.482;2.332;2023-04-03T07:46:14;12.50;9.00;6.75
68841;PMS5003;55849;48.482;2.332;2023-04-03T07:49:17;6.75;6.75;5.50
68841;PMS5003;55849;48.482;2.332;2023-04-03T07:52:20;8.50;6.50;4.00
68841;PMS5003;55849;48.482;2.332;2023-04-03T07:55:22;7.50;6.25;3.50
68841;PMS5003;55849;48.482;2.332;2023-04-03T07:58:23;10.00;9.00;7.00
68841;PMS5003;55849;48.482;2.332;2023-04-03T08:01:25;6.00;6.00;4.00
68841;PMS5003;55849;48.482;2.332;2023-04-03T08:04:27;7.00;7.00;6.00
68841;PMS5003;55849;48.482;2.332;2023-04-03T08:07:30;7.00;6.50;4.00
68841;PMS5003;55849;48.482;2.332;2023-04-03T08:10:32;8.50;8.50;4.50
68841;PMS5003;55849;48.482;2.332;2023-04-03T08:13:34;7.25;7.25;4.00
68841;PMS5003;55849;48.482;2.332;2023-04-03T08:16:35;12.00;7.00;5.00
68841;PMS5003;55849;48.482;2.332;2023-04-03T08:19:37;8.50;8.50;4.00
68841;PMS5003;55849;48.482;2.332;2023-04-03T08:22:41;9.50;9.50;5.00
68841;PMS5003;55849;48.482;2.332;2023-04-03T08:25:43;11.00;9.50;4.00
68841;PMS5003;55849;48.482;2.332;2023-04-03T08:28:45;10.50;8.50;6.00
68841;PMS5003;55849;48.482;2.332;2023-04-03T08:31:47;8.00;6.25;3.75
68841;PMS5003;55849;48.482;2.332;2023-04-03T08:34:49;9.00;9.00;6.25
68841;PMS5003;55849;48.482;2.332;2023-04-03T08:37:52;6.75;6.75;4.00
68841;PMS5003;55849;48.482;2.332;2023-04-03T08:41:02;8.50;8.50;5.50
68841;PMS5003;55849;48.482;2.332;2023-04-03T08:44:12;7.75;3.00;0.00
68841;PMS5003;55849;48.482;2.332;2023-04-03T08:47:20;6.75;6.75;4.00
68841;PMS5003;55849;48.482;2.332;2023-04-03T08:50:26;9.25;4.50;3.75
68841;PMS5003;55849;48.482;2.332;2023-04-03T08:53:34;3.25;3.25;2.50
68841;PMS5003;55849;48.482;2.332;2023-04-03T08:56:40;6.75;5.50;3.00
68841;PMS5003;55849;48.482;2.332;2023-04-03T08:59:42;4.50;4.50;4.50
68841;PMS5003;55849;48.482;2.332;2023-04-03T09:02:44;7.00;6.00;4.00
68841;PMS5003;55849;48.482;2.332;2023-04-03T09:05:48;6.75;4.00;3.00
68841;PMS5003;55849;48.482;2.332;2023-04-03T09:09:01;10.25;4.00;3.50
68841;PMS5003;55849;48.482;2.332;2023-04-03T09:12:13;6.00;5.00;3.00
68841;PMS5003;55849;48.482;2.332;2023-04-03T09:15:21;6.75;3.00;1.50
68841;PMS5003;55849;48.482;2.332;2023-04-03T09:18:25;7.00;4.00;3.00
68841;PMS5003;55849;48.482;2.332;2023-04-03T09:21:33;5.00;3.50;1.00
68841;PMS5003;55849;48.482;2.332;2023-04-03T09:24:40;3.75;3.00;1.00
68841;PMS5003;55849;48.482;2.332;2023-04-03T09:27:43;3.00;3.00;1.50
68841;PMS5003;55849;48.482;2.332;2023-04-03T09:30:45;3.25;3.25;2.25
68841;PMS5003;55849;48.482;2.332;2023-04-03T09:33:47;4.00;4.00;2.50
68841;PMS5003;55849;48.482;2.332;2023-04-03T09:36:52;5.50;5.50;3.25
68841;PMS5003;55849;48.482;2.332;2023-04-03T09:39:57;3.00;3.00;1.00
68841;PMS5003;55849;48.482;2.332;2023-04-03T09:43:00;1.50;1.50;1.00
68841;PMS5003;55849;48.482;2.332;2023-04-03T09:46:20;4.00;4.00;1.00
68841;PMS5003;55849;48.482;2.332;2023-04-03T09:49:29;3.00;3.00;1.00
68841;PMS5003;55849;48.482;2.332;2023-04-03T09:52:30;2.50;2.50;0.75
68841;PMS5003;55849;48.482;2.332;2023-04-03T09:55:41;5.00;5.00;2.25
68841;PMS5003;55849;48.482;2.332;2023-04-03T09:58:44;1.50;1.50;1.00
68841;PMS5003;55849;48.482;2.332;2023-04-03T10:01:56;2.50;0.50;0.00
68841;PMS5003;55849;48.482;2.332;2023-04-03T10:04:59;1.50;1.50;1.00
68841;PMS5003;55849;48.482;2.332;2023-04-03T10:08:15;4.50;4.00;2.50
68841;PMS5003;55849;48.482;2.332;2023-04-03T10:11:25;5.50;4.50;3.50
68841;PMS5003;55849;48.482;2.332;2023-04-03T10:14:27;2.50;2.50;1.25
68841;PMS5003;55849;48.482;2.332;2023-04-03T10:17:42;3.75;3.75;3.00
68841;PMS5003;55849;48.482;2.332;2023-04-03T10:20:52;3.75;3.00;3.00
68841;PMS5003;55849;48.482;2.332;2023-04-03T10:23:57;4.00;4.00;3.00
68841;PMS5003;55849;48.482;2.332;2023-04-03T10:27:10;6.00;3.75;3.00
68841;PMS5003;55849;48.482;2.332;2023-04-03T10:30:21;5.50;3.00;1.00
68841;PMS5003;55849;48.482;2.332;2023-04-03T10:33:36;9.00;3.25;3.00
68841;PMS5003;55849;48.482;2.332;2023-04-03T10:36:49;3.50;3.50;3.50
68841;PMS5003;55849;48.482;2.332;2023-04-03T10:39:59;1.25;1.25;1.00
68841;PMS5003;55849;48.482;2.332;2023-04-03T10:43:06;3.00;3.00;3.00
68841;PMS5003;55849;48.482;2.332;2023-04-03T10:46:13;2.25;2.25;2.00
68841;PMS5003;55849;48.482;2.332;2023-04-03T10:49:31;5.25;4.75;4.00
68841;PMS5003;55849;48.482;2.332;2023-04-03T10:52:41;4.25;4.25;3.00
68841;PMS5003;55849;48.482;2.332;2023-04-03T10:55:50;4.00;4.00;2.25
68841;PMS5003;55849;48.482;2.332;2023-04-03T10:59:01;5.50;4.75;3.25
68841;PMS5003;55849;48.482;2.332;2023-04-03T11:02:11;3.00;3.00;1.25
68841;PMS5003;55849;48.482;2.332;2023-04-03T11:05:21;2.00;2.00;2.00
68841;PMS5003;55849;48.482;2.332;2023-04-03T11:08:32;4.00;4.00;3.00
68841;PMS5003;55849;48.482;2.332;2023-04-03T11:11:38;2.75;2.75;1.75
68841;PMS5003;55849;48.482;2.332;2023-04-03T11:14:43;4.50;4.50;3.00
68841;PMS5003;55849;48.482;2.332;2023-04-03T18:55:02;3.75;3.75;3.00
68841;PMS5003;55849;48.482;2.332;2023-04-03T18:58:03;4.00;4.00;3.00
68841;PMS5003;55849;48.482;2.332;2023-04-03T19:01:05;5.75;4.00;3.75
68841;PMS5003;55849;48.482;2.332;2023-04-03T19:04:07;11.50;9.00;6.00
68841;PMS5003;55849;48.482;2.332;2023-04-03T19:07:08;10.00;8.50;7.00
68841;PMS5003;55849;48.482;2.332;2023-04-03T19:10:12;9.25;6.50;4.50
68841;PMS5003;55849;48.482;2.332;2023-04-03T19:13:17;5.25;5.25;5.00
68841;PMS5003;55849;48.482;2.332;2023-04-03T19:16:18;9.00;7.25;5.50
68841;PMS5003;55849;48.482;2.332;2023-04-03T19:19:20;10.25;7.75;6.25
68841;PMS5003;55849;48.482;2.332;2023-04-03T19:22:22;12.00;11.00;8.00
68841;PMS5003;55849;48.482;2.332;2023-04-03T19:25:25;7.00;7.00;6.00
68841;PMS5003;55849;48.482;2.332;2023-04-03T19:28:27;9.00;6.50;5.75
68841;PMS5003;55849;48.482;2.332;2023-04-03T19:31:28;9.75;8.25;6.50
68841;PMS5003;55849;48.482;2.332;2023-04-03T19:34:32;12.75;11.75;8.25
68841;PMS5003;55849;48.482;2.332;2023-04-03T19:37:34;10.00;9.25;7.00
68841;PMS5003;55849;48.482;2.332;2023-04-03T19:40:37;9.75;9.75;6.00
68841;PMS5003;55849;48.482;2.332;2023-04-03T19:43:42;8.25;7.50;6.00
68841;PMS5003;55849;48.482;2.332;2023-04-03T19:46:45;16.25;12.75;8.25
68841;PMS5003;55849;48.482;2.332;2023-04-03T19:49:48;9.75;7.00;5.25
68841;PMS5003;55849;48.482;2.332;2023-04-03T19:52:50;13.50;10.75;6.75
68841;PMS5003;55849;48.482;2.332;2023-04-03T19:55:53;6.00;6.00;5.00
68841;PMS5003;55849;48.482;2.332;2023-04-03T19:58:56;7.25;7.25;6.00
68841;PMS5003;55849;48.482;2.332;2023-04-03T20:01:57;9.25;8.00;6.00
68841;PMS5003;55849;48.482;2.332;2023-04-03T20:04:59;7.00;6.25;5.25
68841;PMS5003;55849;48.482;2.332;2023-04-03T20:08:00;7.50;5.75;4.00
68841;PMS5003;55849;48.482;2.332;2023-04-03T20:11:04;8.00;6.75;4.25
68841;PMS5003;55849;48.482;2.332;2023-04-03T20:14:06;5.00;5.00;4.00
68841;PMS5003;55849;48.482;2.332;2023-04-03T20:17:07;7.00;6.00;5.00
68841;PMS5003;55849;48.482;2.332;2023-04-03T20:20:09;10.50;7.00;6.00
68841;PMS5003;55849;48.482;2.332;2023-04-03T20:23:12;10.25;8.00;5.00
68841;PMS5003;55849;48.482;2.332;2023-04-03T20:26:19;6.00;6.00;5.00
68841;PMS5003;55849;48.482;2.332;2023-04-03T20:29:22;6.50;6.50;4.75
68841;PMS5003;55849;48.482;2.332;2023-04-03T20:32:24;6.00;5.00;4.00
68841;PMS5003;55849;48.482;2.332;2023-04-03T20:35:26;6.00;6.00;4.00
68841;PMS5003;55849;48.482;2.332;2023-04-03T20:38:28;6.00;4.00;3.00
68841;PMS5003;55849;48.482;2.332;2023-04-03T20:41:31;6.00;1.75;1.00
68841;PMS5003;55849;48.482;2.332;2023-04-03T20:44:34;4.75;4.50;3.50
68841;PMS5003;55849;48.482;2.332;2023-04-03T20:47:36;5.00;5.00;2.75
68841;PMS5003;55849;48.482;2.332;2023-04-03T20:50:38;6.50;5.50;4.00
68841;PMS5003;55849;48.482;2.332;2023-04-03T20:53:40;4.25;4.25;4.00
68841;PMS5003;55849;48.482;2.332;2023-04-03T20:56:43;4.75;4.75;4.00
68841;PMS5003;55849;48.482;2.332;2023-04-03T20:59:46;3.75;3.50;1.50
68841;PMS5003;55849;48.482;2.332;2023-04-03T21:02:48;6.50;5.00;4.00
68841;PMS5003;55849;48.482;2.332;2023-04-03T21:19:20;8.75;5.00;4.00
68841;PMS5003;55849;48.482;2.332;2023-04-03T21:22:22;8.25;8.25;7.00
68841;PMS5003;55849;48.482;2.332;2023-04-03T21:25:24;17.00;17.00;12.00
68841;PMS5003;55849;48.482;2.332;2023-04-03T21:28:27;4.00;4.00;4.00
68841;PMS5003;55849;48.482;2.332;2023-04-03T21:31:48;4.50;3.25;3.00
68841;PMS5003;55849;48.482;2.332;2023-04-03T21:34:52;4.00;4.00;3.00
68841;PMS5003;55849;48.482;2.332;2023-04-03T21:37:54;6.50;6.50;5.50
68841;PMS5003;55849;48.482;2.332;2023-04-03T21:40:56;13.75;10.50;8.00
68841;PMS5003;55849;48.482;2.332;2023-04-03T21:43:59;12.00;10.75;8.50
68841;PMS5003;55849;48.482;2.332;2023-04-03T21:47:01;6.25;6.00;4.00
68841;PMS5003;55849;48.482;2.332;2023-04-03T21:50:04;8.75;7.00;5.00
68841;PMS5003;55849;48.482;2.332;2023-04-03T21:53:07;12.25;9.00;6.75
68841;PMS5003;55849;48.482;2.332;2023-04-03T21:56:09;5.00;5.00;4.00
68841;PMS5003;55849;48.482;2.332;2023-04-03T21:59:11;14.75;12.00;6.75
68841;PMS5003;55849;48.482;2.332;2023-04-03T22:02:13;6.00;6.00;4.00
68841;PMS5003;55849;48.482;2.332;2023-04-03T22:05:16;7.25;6.75;6.00
68841;PMS5003;55849;48.482;2.332;2023-04-03T22:08:17;9.00;8.75;5.50
68841;PMS5003;55849;48.482;2.332;2023-04-03T22:11:19;7.00;7.00;6.00
68841;PMS5003;55849;48.482;2.332;2023-04-03T22:14:23;27.75;22.50;14.75
68841;PMS5003;55849;48.482;2.332;2023-04-03T22:17:28;14.25;11.25;8.50
68841;PMS5003;55849;48.482;2.332;2023-04-03T22:20:31;12.75;12.25;9.00
68841;PMS5003;55849;48.482;2.332;2023-04-03T22:23:33;9.50;8.50;6.75
68841;PMS5003;55849;48.482;2.332;2023-04-03T22:26:34;12.75;11.00;7.00
68841;PMS5003;55849;48.482;2.332;2023-04-03T22:29:38;10.50;10.00;7.00
68841;PMS5003;55849;48.482;2.332;2023-04-03T22:32:40;9.25;9.25;6.00
68841;PMS5003;55849;48.482;2.332;2023-04-03T22:35:45;10.25;5.50;4.00
68841;PMS5003;55849;48.482;2.332;2023-04-03T22:38:47;4.50;4.50;3.00
68841;PMS5003;55849;48.482;2.332;2023-04-03T22:41:48;8.00;8.00;5.50
68841;PMS5003;55849;48.482;2.332;2023-04-03T22:44:51;8.00;8.00;6.00
68841;PMS5003;55849;48.482;2.332;2023-04-03T22:47:53;12.50;9.25;7.00
68841;PMS5003;55849;48.482;2.332;2023-04-03T22:50:59;8.00;7.00;5.00
68841;PMS5003;55849;48.482;2.332;2023-04-03T22:54:00;10.25;10.25;6.25
68841;PMS5003;55849;48.482;2.332;2023-04-03T22:57:02;9.50;8.00;6.25
68841;PMS5003;55849;48.482;2.332;2023-04-03T23:00:04;12.25;12.00;7.00
68841;PMS5003;55849;48.482;2.332;2023-04-03T23:03:07;8.33;6.00;5.33
68841;PMS5003;55849;48.482;2.332;2023-04-03T23:06:13;6.00;6.00;3.00
68841;PMS5003;55849;48.482;2.332;2023-04-03T23:09:14;8.00;7.00;3.50
68841;PMS5003;55849;48.482;2.332;2023-04-03T23:12:16;6.75;5.25;3.75
68841;PMS5003;55849;48.482;2.332;2023-04-03T23:15:18;5.50;5.50;3.00
68841;PMS5003;55849;48.482;2.332;2023-04-03T23:18:20;5.50;3.50;2.50
68841;PMS5003;55849;48.482;2.332;2023-04-03T23:21:23;1.00;1.00;1.00
68841;PMS5003;55849;48.482;2.332;2023-04-03T23:24:24;1.00;1.00;1.00
68841;PMS5003;55849;48.482;2.332;2023-04-03T23:27:26;3.25;3.00;1.00
68841;PMS5003;55849;48.482;2.332;2023-04-03T23:30:28;1.00;1.00;1.00
68841;PMS5003;55849;48.482;2.332;2023-04-03T23:33:29;2.50;2.50;1.00
68841;PMS5003;55849;48.482;2.332;2023-04-03T23:36:33;3.75;1.00;1.00
68841;PMS5003;55849;48.482;2.332;2023-04-03T23:39:34;3.00;3.00;1.50
68841;PMS5003;55849;48.482;2.332;2023-04-03T23:42:36;4.50;3.00;3.00
68841;PMS5003;55849;48.482;2.332;2023-04-03T23:45:38;1.00;1.00;1.00
68841;PMS5003;55849;48.482;2.332;2023-04-03T23:48:39;4.00;1.00;1.00
68841;PMS5003;55849;48.482;2.332;2023-04-03T23:51:42;1.50;1.50;0.50
68841;PMS5003;55849;48.482;2.332;2023-04-03T23:54:44;1.00;1.00;1.00
68841;PMS5003;55849;48.482;2.332;2023-04-03T23:57:46;1.00;0.25;0.00
